sensor_id;sensor_type;location;lat;lon;timestamp;temperature;humidity
14192;DHT22;7177;48.572;7.838;2024-01-15T00:00:26;-2.60;99.90
14192;DHT22;7177;48.572;7.838;2024-01-15T00:02:51;-2.60;99.90
14192;DHT22;7177;48.572;7.838;2024-01-15T00:05:17;-2.60;99.90
14192;DHT22;7177;48.572;7.838;2024-01-15T00:07:42;-2.50;99.90
14192;DHT22;7177;48.572;7.838;2024-01-15T00:10:08;-2.50;99.90
14192;DHT22;7177;48.572;7.838;2024-01-15T00:12:37;-2.50;99.90
14192;DHT22;7177;48.572;7.838;2024-01-15T00:15:03;-2.50;99.90
14192;DHT22;7177;48.572;7.838;2024-01-15T00:17:28;-2.50;99.90
14192;DHT22;7177;48.572;7.838;2024-01-15T00:19:54;-2.40;99.90
14192;DHT22;7177;48.572;7.838;2024-01-15T00:22:19;-2.40;99.90
14192;DHT22;7177;48.572;7.838;2024-01-15T00:24:45;-2.40;99.90
14192;DHT22;7177;48.572;7.838;2024-01-15T00:27:10;-2.30;99.90
14192;DHT22;7177;48.572;7.838;2024-01-15T00:29:36;-2.30;99.90
14192;DHT22;7177;48.572;7.838;2024-01-15T00:32:01;-2.30;99.90
14192;DHT22;7177;48.572;7.838;2024-01-15T00:34:27;-2.30;99.90
14192;DHT22;7177;48.572;7.838;2024-01-15T00:36:52;-2.30;99.90
14192;DHT22;7177;48.572;7.838;2024-01-15T00:39:18;-2.20;99.90
14192;DHT22;7177;48.572;7.838;2024-01-15T00:41:43;-2.20;99.90
14192;DHT22;7177;48.572;7.838;2024-01-15T00:44:09;-2.20;99.90
14192;DHT22;7177;48.572;7.838;2024-01-15T00:46:44;-2.20;99.90
14192;DHT22;7177;48.572;7.838;2024-01-15T00:49:11;-2.10;99.90
14192;DHT22;7177;48.572;7.838;2024-01-15T00:51:37;-2.10;99.90
14192;DHT22;7177;48.572;7.838;2024-01-15T00:54:02;-2.10;99.90
14192;DHT22;7177;48.572;7.838;2024-01-15T00:56:28;-2.10;99.90
14192;DHT22;7177;48.572;7.838;2024-01-15T00:58:53;-2.10;99.90
14192;DHT22;7177;48.572;7.838;2024-01-15T01:01:19;-2.00;99.90
14192;DHT22;7177;48.572;7.838;2024-01-15T01:03:44;-2.00;99.90
14192;DHT22;7177;48.572;7.838;2024-01-15T01:06:10;-2.00;99.90
14192;DHT22;7177;48.572;7.838;2024-01-15T01:08:35;-2.00;99.90
14192;DHT22;7177;48.572;7.838;2024-01-15T01:11:01;-2.00;99.90
14192;DHT22;7177;48.572;7.838;2024-01-15T01:13:27;-2.00;99.90
14192;DHT22;7177;48.572;7.838;2024-01-15T01:15:52;-2.00;99.90
14192;DHT22;7177;48.572;7.838;2024-01-15T01:18:17;-1.90;99.90
14192;DHT22;7177;48.572;7.838;2024-01-15T01:20:43;-1.90;99.90
14192;DHT22;7177;48.572;7.838;2024-01-15T01:23:09;-1.90;99.90
14192;DHT22;7177;48.572;7.838;2024-01-15T01:25:34;-1.90;99.90
14192;DHT22;7177;48.572;7.838;2024-01-15T01:27:59;-1.90;99.90
14192;DHT22;7177;48.572;7.838;2024-01-15T01:30:25;-1.90;99.90
14192;DHT22;7177;48.572;7.838;2024-01-15T01:32:51;-1.80;99.90
14192;DHT22;7177;48.572;7.838;2024-01-15T01:35:16;-1.80;99.90
14192;DHT22;7177;48.572;7.838;2024-01-15T01:37:42;-1.80;99.90
14192;DHT22;7177;48.572;7.838;2024-01-15T01:40:08;-1.80;99.90
14192;DHT22;7177;48.572;7.838;2024-01-15T01:42:33;-1.80;99.90
14192;DHT22;7177;48.572;7.838;2024-01-15T01:44:59;-1.80;99.90
14192;DHT22;7177;48.572;7.838;2024-01-15T01:47:24;-1.80;99.90
14192;DHT22;7177;48.572;7.838;2024-01-15T01:49:52;-1.90;99.90
14192;DHT22;7177;48.572;7.838;2024-01-15T01:52:18;-1.90;99.90
14192;DHT22;7177;48.572;7.838;2024-01-15T01:54:44;-1.90;99.90
14192;DHT22;7177;48.572;7.838;2024-01-15T01:57:10;-1.90;99.90
14192;DHT22;7177;48.572;7.838;2024-01-15T01:59:36;-1.90;99.90
14192;DHT22;7177;48.572;7.838;2024-01-15T02:02:03;-1.90;99.90
14192;DHT22;7177;48.572;7.838;2024-01-15T02:04:29;-1.90;99.90
14192;DHT22;7177;48.572;7.838;2024-01-15T02:06:56;-1.80;99.90
14192;DHT22;7177;48.572;7.838;2024-01-15T02:09:22;-1.80;99.90
14192;DHT22;7177;48.572;7.838;2024-01-15T02:11:47;-1.80;99.90
14192;DHT22;7177;48.572;7.838;2024-01-15T02:14:13;-1.80;99.90
14192;DHT22;7177;48.572;7.838;2024-01-15T02:16:39;-1.80;99.90
14192;DHT22;7177;48.572;7.838;2024-01-15T02:19:04;-1.80;99.90
14192;DHT22;7177;48.572;7.838;2024-01-15T02:21:31;-1.80;99.90
14192;DHT22;7177;48.572;7.838;2024-01-15T02:23:57;-1.80;99.90
14192;DHT22;7177;48.572;7.838;2024-01-15T02:26:23;-1.80;99.90
14192;DHT22;7177;48.572;7.838;2024-01-15T02:28:50;-1.80;99.90
14192;DHT22;7177;48.572;7.838;2024-01-15T02:31:16;-1.80;99.90
14192;DHT22;7177;48.572;7.838;2024-01-15T02:33:42;-1.80;99.90
14192;DHT22;7177;48.572;7.838;2024-01-15T02:36:08;-1.70;99.90
14192;DHT22;7177;48.572;7.838;2024-01-15T02:38:34;-1.80;99.90
14192;DHT22;7177;48.572;7.838;2024-01-15T02:41:00;-1.80;99.90
14192;DHT22;7177;48.572;7.838;2024-01-15T02:43:25;-1.80;99.90
14192;DHT22;7177;48.572;7.838;2024-01-15T02:45:51;-1.80;99.90
14192;DHT22;7177;48.572;7.838;2024-01-15T02:48:16;-1.80;99.90
14192;DHT22;7177;48.572;7.838;2024-01-15T02:50:42;-1.80;99.90
14192;DHT22;7177;48.572;7.838;2024-01-15T02:53:07;-1.80;99.90
14192;DHT22;7177;48.572;7.838;2024-01-15T02:55:33;-1.80;99.90
14192;DHT22;7177;48.572;7.838;2024-01-15T02:57:59;-1.80;99.90
14192;DHT22;7177;48.572;7.838;2024-01-15T03:00:24;-1.80;99.90
14192;DHT22;7177;48.572;7.838;2024-01-15T03:02:50;-1.80;99.90
14192;DHT22;7177;48.572;7.838;2024-01-15T03:05:16;-1.90;99.90
14192;DHT22;7177;48.572;7.838;2024-01-15T03:07:42;-1.90;99.90
14192;DHT22;7177;48.572;7.838;2024-01-15T03:10:08;-1.90;99.90
14192;DHT22;7177;48.572;7.838;2024-01-15T03:12:34;-1.90;99.90
14192;DHT22;7177;48.572;7.838;2024-01-15T03:14:59;-1.90;99.90
14192;DHT22;7177;48.572;7.838;2024-01-15T03:17:25;-1.90;99.90
14192;DHT22;7177;48.572;7.838;2024-01-15T03:19:50;-2.00;99.90
14192;DHT22;7177;48.572;7.838;2024-01-15T03:22:17;-2.00;99.90
14192;DHT22;7177;48.572;7.838;2024-01-15T03:24:43;-2.00;99.90
14192;DHT22;7177;48.572;7.838;2024-01-15T03:27:08;-2.00;99.90
14192;DHT22;7177;48.572;7.838;2024-01-15T03:29:34;-1.90;99.90
14192;DHT22;7177;48.572;7.838;2024-01-15T03:31:59;-1.90;99.90
14192;DHT22;7177;48.572;7.838;2024-01-15T03:34:25;-1.90;99.90
14192;DHT22;7177;48.572;7.838;2024-01-15T03:36:50;-1.80;99.90
14192;DHT22;7177;48.572;7.838;2024-01-15T03:39:16;-1.80;99.90
14192;DHT22;7177;48.572;7.838;2024-01-15T03:41:41;-1.90;99.90
14192;DHT22;7177;48.572;7.838;2024-01-15T03:44:07;-1.90;99.90
14192;DHT22;7177;48.572;7.838;2024-01-15T03:46:33;-1.80;99.90
14192;DHT22;7177;48.572;7.838;2024-01-15T03:48:58;-1.80;99.90
14192;DHT22;7177;48.572;7.838;2024-01-15T03:51:24;-1.80;99.90
14192;DHT22;7177;48.572;7.838;2024-01-15T03:53:49;-1.80;99.90
14192;DHT22;7177;48.572;7.838;2024-01-15T03:56:15;-1.70;99.90
14192;DHT22;7177;48.572;7.838;2024-01-15T03:58:41;-1.70;99.90
14192;DHT22;7177;48.572;7.838;2024-01-15T04:01:10;-1.70;99.90
14192;DHT22;7177;48.572;7.838;2024-01-15T04:03:36;-1.70;99.90
14192;DHT22;7177;48.572;7.838;2024-01-15T04:06:02;-1.60;99.90
14192;DHT22;7177;48.572;7.838;2024-01-15T04:08:27;-1.70;99.90
14192;DHT22;7177;48.572;7.838;2024-01-15T04:10:53;-1.70;99.90
14192;DHT22;7177;48.572;7.838;2024-01-15T04:13:18;-1.80;99.90
14192;DHT22;7177;48.572;7.838;2024-01-15T04:15:44;-1.80;99.90
14192;DHT22;7177;48.572;7.838;2024-01-15T04:18:09;-1.80;99.90
14192;DHT22;7177;48.572;7.838;2024-01-15T04:20:35;-1.80;99.90
14192;DHT22;7177;48.572;7.838;2024-01-15T04:23:00;-1.80;99.90
14192;DHT22;7177;48.572;7.838;2024-01-15T04:25:26;-1.80;99.90
14192;DHT22;7177;48.572;7.838;2024-01-15T04:27:51;-1.80;99.90
14192;DHT22;7177;48.572;7.838;2024-01-15T04:30:17;-1.80;99.90
14192;DHT22;7177;48.572;7.838;2024-01-15T04:32:42;-1.80;99.90
14192;DHT22;7177;48.572;7.838;2024-01-15T04:35:08;-1.80;99.90
14192;DHT22;7177;48.572;7.838;2024-01-15T04:37:33;-1.80;99.90
14192;DHT22;7177;48.572;7.838;2024-01-15T04:39:59;-1.80;99.90
14192;DHT22;7177;48.572;7.838;2024-01-15T04:42:24;-1.80;99.90
14192;DHT22;7177;48.572;7.838;2024-01-15T04:44:50;-1.80;99.90
14192;DHT22;7177;48.572;7.838;2024-01-15T04:47:16;-1.80;99.90
14192;DHT22;7177;48.572;7.838;2024-01-15T04:49:42;-1.80;99.90
14192;DHT22;7177;48.572;7.838;2024-01-15T04:52:07;-1.70;99.90
14192;DHT22;7177;48.572;7.838;2024-01-15T04:54:35;-1.80;99.90
14192;DHT22;7177;48.572;7.838;2024-01-15T04:57:01;-1.70;99.90
14192;DHT22;7177;48.572;7.838;2024-01-15T04:59:27;-1.70;99.90
14192;DHT22;7177;48.572;7.838;2024-01-15T05:01:53;-1.80;99.90
14192;DHT22;7177;48.572;7.838;2024-01-15T05:04:19;-1.70;99.90
14192;DHT22;7177;48.572;7.838;2024-01-15T05:06:44;-1.70;99.90
14192;DHT22;7177;48.572;7.838;2024-01-15T05:09:10;-1.70;99.90
14192;DHT22;7177;48.572;7.838;2024-01-15T05:11:35;-1.70;99.90
14192;DHT22;7177;48.572;7.838;2024-01-15T05:14:01;-1.70;99.90
14192;DHT22;7177;48.572;7.838;2024-01-15T05:16:26;-1.70;99.90
14192;DHT22;7177;48.572;7.838;2024-01-15T05:18:52;-1.70;99.90
14192;DHT22;7177;48.572;7.838;2024-01-15T05:21:17;-1.70;99.90
14192;DHT22;7177;48.572;7.838;2024-01-15T05:23:43;-1.70;99.90
14192;DHT22;7177;48.572;7.838;2024-01-15T05:26:08;-1.70;99.90
14192;DHT22;7177;48.572;7.838;2024-01-15T05:28:34;-1.70;99.90
14192;DHT22;7177;48.572;7.838;2024-01-15T05:31:00;-1.70;99.90
14192;DHT22;7177;48.572;7.838;2024-01-15T05:33:25;-1.70;99.90
14192;DHT22;7177;48.572;7.838;2024-01-15T05:35:51;-1.70;99.90
14192;DHT22;7177;48.572;7.838;2024-01-15T05:38:17;-1.70;99.90
14192;DHT22;7177;48.572;7.838;2024-01-15T05:40:42;-1.70;99.90
14192;DHT22;7177;48.572;7.838;2024-01-15T05:43:08;-1.60;99.90
14192;DHT22;7177;48.572;7.838;2024-01-15T05:45:34;-1.60;99.90
14192;DHT22;7177;48.572;7.838;2024-01-15T05:48:01;-1.60;99.90
14192;DHT22;7177;48.572;7.838;2024-01-15T05:50:26;-1.60;99.90
14192;DHT22;7177;48.572;7.838;2024-01-15T05:52:52;-1.60;99.90
14192;DHT22;7177;48.572;7.838;2024-01-15T05:55:18;-1.60;99.90
14192;DHT22;7177;48.572;7.838;2024-01-15T05:57:44;-1.60;99.90
14192;DHT22;7177;48.572;7.838;2024-01-15T06:00:10;-1.60;99.90
14192;DHT22;7177;48.572;7.838;2024-01-15T06:02:39;-1.60;99.90
14192;DHT22;7177;48.572;7.838;2024-01-15T06:05:05;-1.60;99.90
14192;DHT22;7177;48.572;7.838;2024-01-15T06:07:32;-1.60;99.90
14192;DHT22;7177;48.572;7.838;2024-01-15T06:09:57;-1.60;99.90
14192;DHT22;7177;48.572;7.838;2024-01-15T06:12:23;-1.30;99.90
14192;DHT22;7177;48.572;7.838;2024-01-15T06:14:48;-1.20;99.90
14192;DHT22;7177;48.572;7.838;2024-01-15T06:17:14;-1.20;99.90
14192;DHT22;7177;48.572;7.838;2024-01-15T06:19:39;-1.20;99.90
14192;DHT22;7177;48.572;7.838;2024-01-15T06:22:05;-1.30;99.90
14192;DHT22;7177;48.572;7.838;2024-01-15T06:24:31;-1.30;99.90
14192;DHT22;7177;48.572;7.838;2024-01-15T06:26:56;-1.30;99.90
14192;DHT22;7177;48.572;7.838;2024-01-15T06:29:25;-1.30;99.90
14192;DHT22;7177;48.572;7.838;2024-01-15T06:31:50;-1.30;99.90
14192;DHT22;7177;48.572;7.838;2024-01-15T06:34:16;-1.30;99.90
14192;DHT22;7177;48.572;7.838;2024-01-15T06:36:41;-1.30;99.90
14192;DHT22;7177;48.572;7.838;2024-01-15T06:39:07;-1.30;99.90
14192;DHT22;7177;48.572;7.838;2024-01-15T06:41:33;-1.30;99.90
14192;DHT22;7177;48.572;7.838;2024-01-15T06:43:58;-1.20;99.90
14192;DHT22;7177;48.572;7.838;2024-01-15T06:46:24;-1.20;99.90
14192;DHT22;7177;48.572;7.838;2024-01-15T06:48:49;-1.20;99.90
14192;DHT22;7177;48.572;7.838;2024-01-15T06:51:16;-1.10;99.90
14192;DHT22;7177;48.572;7.838;2024-01-15T06:53:41;-1.10;99.90
14192;DHT22;7177;48.572;7.838;2024-01-15T06:56:08;-1.10;99.90
14192;DHT22;7177;48.572;7.838;2024-01-15T06:58:33;-1.10;99.90
14192;DHT22;7177;48.572;7.838;2024-01-15T07:00:59;-1.10;99.90
14192;DHT22;7177;48.572;7.838;2024-01-15T07:03:25;-1.00;99.90
14192;DHT22;7177;48.572;7.838;2024-01-15T07:05:50;-1.00;99.90
14192;DHT22;7177;48.572;7.838;2024-01-15T07:08:16;-0.90;99.90
14192;DHT22;7177;48.572;7.838;2024-01-15T07:10:41;-0.80;99.90
14192;DHT22;7177;48.572;7.838;2024-01-15T07:13:07;-0.80;99.90
14192;DHT22;7177;48.572;7.838;2024-01-15T07:15:32;-0.80;99.90
14192;DHT22;7177;48.572;7.838;2024-01-15T07:17:58;-0.70;99.90
14192;DHT22;7177;48.572;7.838;2024-01-15T07:20:24;-0.70;99.90
14192;DHT22;7177;48.572;7.838;2024-01-15T07:22:49;-0.60;99.90
14192;DHT22;7177;48.572;7.838;2024-01-15T07:25:15;-0.50;99.90
14192;DHT22;7177;48.572;7.838;2024-01-15T07:27:41;-0.50;99.90
14192;DHT22;7177;48.572;7.838;2024-01-15T07:30:10;-0.50;99.90
14192;DHT22;7177;48.572;7.838;2024-01-15T07:32:36;-0.50;99.90
14192;DHT22;7177;48.572;7.838;2024-01-15T07:35:02;-0.40;99.90
14192;DHT22;7177;48.572;7.838;2024-01-15T07:37:28;-0.40;99.90
14192;DHT22;7177;48.572;7.838;2024-01-15T07:39:54;-0.40;99.90
14192;DHT22;7177;48.572;7.838;2024-01-15T07:42:19;-0.40;99.90
14192;DHT22;7177;48.572;7.838;2024-01-15T07:44:45;-0.40;99.90
14192;DHT22;7177;48.572;7.838;2024-01-15T07:47:10;-0.40;99.90
14192;DHT22;7177;48.572;7.838;2024-01-15T07:49:36;-0.40;99.90
14192;DHT22;7177;48.572;7.838;2024-01-15T07:52:01;-0.50;99.90
14192;DHT22;7177;48.572;7.838;2024-01-15T07:54:27;-0.40;99.90
14192;DHT22;7177;48.572;7.838;2024-01-15T07:59:19;-0.40;99.90
14192;DHT22;7177;48.572;7.838;2024-01-15T08:01:45;-0.40;99.90
14192;DHT22;7177;48.572;7.838;2024-01-15T08:04:10;-0.40;99.90
14192;DHT22;7177;48.572;7.838;2024-01-15T08:06:38;-0.40;99.90
14192;DHT22;7177;48.572;7.838;2024-01-15T08:09:03;-0.40;99.90
14192;DHT22;7177;48.572;7.838;2024-01-15T08:11:29;-0.40;99.90
14192;DHT22;7177;48.572;7.838;2024-01-15T08:13:55;-0.30;99.90
14192;DHT22;7177;48.572;7.838;2024-01-15T08:16:21;-0.30;99.90
14192;DHT22;7177;48.572;7.838;2024-01-15T08:18:47;-0.30;99.90
14192;DHT22;7177;48.572;7.838;2024-01-15T08:21:13;-0.30;99.90
14192;DHT22;7177;48.572;7.838;2024-01-15T08:23:39;-0.20;99.90
14192;DHT22;7177;48.572;7.838;2024-01-15T08:26:04;-0.20;99.90
14192;DHT22;7177;48.572;7.838;2024-01-15T08:28:30;-0.20;99.90
14192;DHT22;7177;48.572;7.838;2024-01-15T08:30:56;-0.20;99.90
14192;DHT22;7177;48.572;7.838;2024-01-15T08:33:21;-0.20;99.90
14192;DHT22;7177;48.572;7.838;2024-01-15T08:35:47;-0.20;99.90
14192;DHT22;7177;48.572;7.838;2024-01-15T08:38:13;0.20;99.90
14192;DHT22;7177;48.572;7.838;2024-01-15T08:40:38;0.40;99.90
14192;DHT22;7177;48.572;7.838;2024-01-15T08:43:04;0.30;99.90
14192;DHT22;7177;48.572;7.838;2024-01-15T08:45:32;0.20;99.90
14192;DHT22;7177;48.572;7.838;2024-01-15T08:47:57;0.10;99.90
14192;DHT22;7177;48.572;7.838;2024-01-15T08:50:23;0.10;99.90
14192;DHT22;7177;48.572;7.838;2024-01-15T08:52:48;0.00;99.90
14192;DHT22;7177;48.572;7.838;2024-01-15T08:55:14;0.00;99.90
14192;DHT22;7177;48.572;7.838;2024-01-15T08:57:39;0.00;99.90
14192;DHT22;7177;48.572;7.838;2024-01-15T09:00:05;0.00;99.90
14192;DHT22;7177;48.572;7.838;2024-01-15T09:02:34;0.00;99.90
14192;DHT22;7177;48.572;7.838;2024-01-15T09:05:00;0.00;99.90
14192;DHT22;7177;48.572;7.838;2024-01-15T09:07:26;0.00;99.90
14192;DHT22;7177;48.572;7.838;2024-01-15T09:09:52;0.00;99.90
14192;DHT22;7177;48.572;7.838;2024-01-15T09:12:18;0.00;99.90
14192;DHT22;7177;48.572;7.838;2024-01-15T09:14:46;0.00;99.90
14192;DHT22;7177;48.572;7.838;2024-01-15T09:17:12;0.10;99.90
14192;DHT22;7177;48.572;7.838;2024-01-15T09:19:37;0.10;99.90
14192;DHT22;7177;48.572;7.838;2024-01-15T09:22:05;0.10;99.90
14192;DHT22;7177;48.572;7.838;2024-01-15T09:24:30;0.10;99.90
14192;DHT22;7177;48.572;7.838;2024-01-15T09:26:56;0.20;99.90
14192;DHT22;7177;48.572;7.838;2024-01-15T09:29:21;0.20;99.90
14192;DHT22;7177;48.572;7.838;2024-01-15T09:31:49;0.20;99.90
14192;DHT22;7177;48.572;7.838;2024-01-15T09:34:15;0.30;99.90
14192;DHT22;7177;48.572;7.838;2024-01-15T09:36:41;0.30;99.90
14192;DHT22;7177;48.572;7.838;2024-01-15T09:39:09;0.30;99.90
14192;DHT22;7177;48.572;7.838;2024-01-15T09:41:36;0.30;99.90
14192;DHT22;7177;48.572;7.838;2024-01-15T09:44:03;0.40;99.90
14192;DHT22;7177;48.572;7.838;2024-01-15T09:46:29;0.40;99.90
14192;DHT22;7177;48.572;7.838;2024-01-15T09:48:55;0.50;99.90
14192;DHT22;7177;48.572;7.838;2024-01-15T09:51:21;0.50;99.90
14192;DHT22;7177;48.572;7.838;2024-01-15T09:53:47;0.50;99.90
14192;DHT22;7177;48.572;7.838;2024-01-15T09:56:14;0.60;99.90
14192;DHT22;7177;48.572;7.838;2024-01-15T09:58:40;0.70;99.90
14192;DHT22;7177;48.572;7.838;2024-01-15T10:01:08;0.70;99.90
14192;DHT22;7177;48.572;7.838;2024-01-15T10:03:34;0.80;99.90
14192;DHT22;7177;48.572;7.838;2024-01-15T10:06:00;0.80;99.90
14192;DHT22;7177;48.572;7.838;2024-01-15T10:08:28;0.80;99.90
14192;DHT22;7177;48.572;7.838;2024-01-15T10:10:53;0.80;99.90
14192;DHT22;7177;48.572;7.838;2024-01-15T10:13:19;0.80;99.90
14192;DHT22;7177;48.572;7.838;2024-01-15T10:15:46;0.90;99.90
14192;DHT22;7177;48.572;7.838;2024-01-15T10:18:15;0.90;99.90
14192;DHT22;7177;48.572;7.838;2024-01-15T10:20:40;1.00;99.90
14192;DHT22;7177;48.572;7.838;2024-01-15T10:23:06;1.10;99.90
14192;DHT22;7177;48.572;7.838;2024-01-15T10:25:31;1.20;99.90
14192;DHT22;7177;48.572;7.838;2024-01-15T10:28:01;1.30;99.90
14192;DHT22;7177;48.572;7.838;2024-01-15T10:30:26;1.30;99.90
14192;DHT22;7177;48.572;7.838;2024-01-15T10:33:00;1.30;99.90
14192;DHT22;7177;48.572;7.838;2024-01-15T10:35:35;1.40;99.90
14192;DHT22;7177;48.572;7.838;2024-01-15T10:38:01;1.50;99.90
14192;DHT22;7177;48.572;7.838;2024-01-15T10:40:28;1.50;99.90
14192;DHT22;7177;48.572;7.838;2024-01-15T10:42:54;1.40;99.90
14192;DHT22;7177;48.572;7.838;2024-01-15T10:45:20;1.40;99.90
14192;DHT22;7177;48.572;7.838;2024-01-15T10:47:45;1.40;99.90
14192;DHT22;7177;48.572;7.838;2024-01-15T10:50:11;1.40;99.90
14192;DHT22;7177;48.572;7.838;2024-01-15T10:52:38;1.40;99.90
14192;DHT22;7177;48.572;7.838;2024-01-15T10:55:06;1.40;99.90
14192;DHT22;7177;48.572;7.838;2024-01-15T10:57:33;1.40;99.90
14192;DHT22;7177;48.572;7.838;2024-01-15T10:59:58;1.40;99.90
14192;DHT22;7177;48.572;7.838;2024-01-15T11:02:25;1.40;99.90
14192;DHT22;7177;48.572;7.838;2024-01-15T11:04:51;1.50;99.90
14192;DHT22;7177;48.572;7.838;2024-01-15T11:07:17;1.50;99.90
14192;DHT22;7177;48.572;7.838;2024-01-15T11:09:43;1.50;99.90
14192;DHT22;7177;48.572;7.838;2024-01-15T11:12:12;1.50;99.90
14192;DHT22;7177;48.572;7.838;2024-01-15T11:14:44;1.50;99.90
14192;DHT22;7177;48.572;7.838;2024-01-15T11:17:11;1.50;99.90
14192;DHT22;7177;48.572;7.838;2024-01-15T11:19:44;1.50;99.90
14192;DHT22;7177;48.572;7.838;2024-01-15T11:24:55;1.60;99.90
14192;DHT22;7177;48.572;7.838;2024-01-15T11:27:40;1.60;99.90
14192;DHT22;7177;48.572;7.838;2024-01-15T11:30:10;1.70;99.90
14192;DHT22;7177;48.572;7.838;2024-01-15T11:32:36;1.80;99.90
14192;DHT22;7177;48.572;7.838;2024-01-15T11:35:02;1.70;99.90
14192;DHT22;7177;48.572;7.838;2024-01-15T11:37:56;1.80;99.90
14192;DHT22;7177;48.572;7.838;2024-01-15T11:40:18;1.80;99.90
14192;DHT22;7177;48.572;7.838;2024-01-15T11:42:45;1.80;99.90
14192;DHT22;7177;48.572;7.838;2024-01-15T11:45:10;1.80;99.90
14192;DHT22;7177;48.572;7.838;2024-01-15T11:50:21;1.70;99.90
14192;DHT22;7177;48.572;7.838;2024-01-15T11:52:56;1.70;99.90
14192;DHT22;7177;48.572;7.838;2024-01-15T11:55:34;1.70;99.90
14192;DHT22;7177;48.572;7.838;2024-01-15T11:58:11;1.70;99.90
14192;DHT22;7177;48.572;7.838;2024-01-15T12:00:49;1.80;99.90
14192;DHT22;7177;48.572;7.838;2024-01-15T12:03:16;1.80;99.90
14192;DHT22;7177;48.572;7.838;2024-01-15T12:05:41;1.80;99.90
14192;DHT22;7177;48.572;7.838;2024-01-15T12:08:08;1.80;99.90
14192;DHT22;7177;48.572;7.838;2024-01-15T12:10:37;1.80;99.90
14192;DHT22;7177;48.572;7.838;2024-01-15T12:13:14;1.80;99.90
14192;DHT22;7177;48.572;7.838;2024-01-15T12:15:41;1.70;99.90
14192;DHT22;7177;48.572;7.838;2024-01-15T12:18:09;1.60;99.90
14192;DHT22;7177;48.572;7.838;2024-01-15T12:20:35;1.50;99.90
14192;DHT22;7177;48.572;7.838;2024-01-15T12:23:01;1.60;99.90
14192;DHT22;7177;48.572;7.838;2024-01-15T12:25:31;1.50;99.90
14192;DHT22;7177;48.572;7.838;2024-01-15T12:27:59;1.40;99.90
14192;DHT22;7177;48.572;7.838;2024-01-15T12:30:26;1.40;99.90
14192;DHT22;7177;48.572;7.838;2024-01-15T12:32:52;1.40;99.90
14192;DHT22;7177;48.572;7.838;2024-01-15T12:35:17;1.40;99.90
14192;DHT22;7177;48.572;7.838;2024-01-15T12:37:43;1.40;99.90
14192;DHT22;7177;48.572;7.838;2024-01-15T12:40:10;1.40;99.90
14192;DHT22;7177;48.572;7.838;2024-01-15T12:42:42;1.40;99.90
14192;DHT22;7177;48.572;7.838;2024-01-15T12:45:09;1.40;99.90
14192;DHT22;7177;48.572;7.838;2024-01-15T12:47:36;1.30;99.90
14192;DHT22;7177;48.572;7.838;2024-01-15T12:50:02;1.40;99.90
14192;DHT22;7177;48.572;7.838;2024-01-15T12:52:29;1.30;99.90
14192;DHT22;7177;48.572;7.838;2024-01-15T12:54:55;1.30;99.90
14192;DHT22;7177;48.572;7.838;2024-01-15T12:57:20;1.30;99.90
14192;DHT22;7177;48.572;7.838;2024-01-15T12:59:46;1.30;99.90
14192;DHT22;7177;48.572;7.838;2024-01-15T13:02:12;1.30;99.90
14192;DHT22;7177;48.572;7.838;2024-01-15T13:04:38;1.30;99.90
14192;DHT22;7177;48.572;7.838;2024-01-15T13:07:04;1.40;99.90
14192;DHT22;7177;48.572;7.838;2024-01-15T13:09:30;1.40;99.90
14192;DHT22;7177;48.572;7.838;2024-01-15T13:11:55;1.40;99.90
14192;DHT22;7177;48.572;7.838;2024-01-15T13:14:21;1.40;99.90
14192;DHT22;7177;48.572;7.838;2024-01-15T13:16:47;1.40;99.90
14192;DHT22;7177;48.572;7.838;2024-01-15T13:19:12;1.30;99.90
14192;DHT22;7177;48.572;7.838;2024-01-15T13:21:42;1.30;99.90
14192;DHT22;7177;48.572;7.838;2024-01-15T13:24:08;1.30;99.90
14192;DHT22;7177;48.572;7.838;2024-01-15T13:26:34;1.30;99.90
14192;DHT22;7177;48.572;7.838;2024-01-15T13:29:00;1.20;99.90
14192;DHT22;7177;48.572;7.838;2024-01-15T13:31:30;1.20;99.90
14192;DHT22;7177;48.572;7.838;2024-01-15T13:33:56;1.20;99.90
14192;DHT22;7177;48.572;7.838;2024-01-15T13:36:27;1.10;99.90
14192;DHT22;7177;48.572;7.838;2024-01-15T13:38:53;1.10;99.90
14192;DHT22;7177;48.572;7.838;2024-01-15T13:41:20;1.10;99.90
14192;DHT22;7177;48.572;7.838;2024-01-15T13:43:49;1.10;99.90
14192;DHT22;7177;48.572;7.838;2024-01-15T13:46:16;1.10;99.90
14192;DHT22;7177;48.572;7.838;2024-01-15T13:48:42;1.10;99.90
14192;DHT22;7177;48.572;7.838;2024-01-15T13:51:08;1.10;99.90
14192;DHT22;7177;48.572;7.838;2024-01-15T13:53:34;1.10;99.90
14192;DHT22;7177;48.572;7.838;2024-01-15T13:55:59;1.10;99.90
14192;DHT22;7177;48.572;7.838;2024-01-15T13:58:25;1.10;99.90
14192;DHT22;7177;48.572;7.838;2024-01-15T14:00:51;1.20;99.90
14192;DHT22;7177;48.572;7.838;2024-01-15T14:03:17;1.20;99.90
14192;DHT22;7177;48.572;7.838;2024-01-15T14:05:43;1.20;99.90
14192;DHT22;7177;48.572;7.838;2024-01-15T14:08:08;1.30;99.90
14192;DHT22;7177;48.572;7.838;2024-01-15T14:10:34;1.30;99.90
14192;DHT22;7177;48.572;7.838;2024-01-15T14:12:59;1.30;99.90
14192;DHT22;7177;48.572;7.838;2024-01-15T14:15:25;1.40;99.90
14192;DHT22;7177;48.572;7.838;2024-01-15T14:17:50;1.40;99.90
14192;DHT22;7177;48.572;7.838;2024-01-15T14:20:16;1.40;99.90
14192;DHT22;7177;48.572;7.838;2024-01-15T14:22:42;1.40;99.90
14192;DHT22;7177;48.572;7.838;2024-01-15T14:25:08;1.40;99.90
14192;DHT22;7177;48.572;7.838;2024-01-15T14:27:33;1.40;99.90
14192;DHT22;7177;48.572;7.838;2024-01-15T14:29:59;1.30;99.90
14192;DHT22;7177;48.572;7.838;2024-01-15T14:32:24;1.30;99.90
14192;DHT22;7177;48.572;7.838;2024-01-15T14:34:50;1.40;99.90
14192;DHT22;7177;48.572;7.838;2024-01-15T14:37:15;1.40;99.90
14192;DHT22;7177;48.572;7.838;2024-01-15T14:39:41;1.40;99.90
14192;DHT22;7177;48.572;7.838;2024-01-15T14:42:06;1.40;99.90
14192;DHT22;7177;48.572;7.838;2024-01-15T14:44:32;1.50;99.90
14192;DHT22;7177;48.572;7.838;2024-01-15T14:47:00;1.50;99.90
14192;DHT22;7177;48.572;7.838;2024-01-15T14:49:25;1.50;99.90
14192;DHT22;7177;48.572;7.838;2024-01-15T14:51:51;1.50;99.90
14192;DHT22;7177;48.572;7.838;2024-01-15T14:54:17;1.50;99.90
14192;DHT22;7177;48.572;7.838;2024-01-15T14:56:42;1.50;99.90
14192;DHT22;7177;48.572;7.838;2024-01-15T14:59:08;1.50;99.90
14192;DHT22;7177;48.572;7.838;2024-01-15T15:01:34;1.50;99.90
14192;DHT22;7177;48.572;7.838;2024-01-15T15:03:59;1.40;99.90
14192;DHT22;7177;48.572;7.838;2024-01-15T15:06:25;1.40;99.90
14192;DHT22;7177;48.572;7.838;2024-01-15T15:08:53;1.40;99.90
14192;DHT22;7177;48.572;7.838;2024-01-15T15:11:20;1.30;99.90
14192;DHT22;7177;48.572;7.838;2024-01-15T15:13:48;1.30;99.90
14192;DHT22;7177;48.572;7.838;2024-01-15T15:16:14;1.30;99.90
14192;DHT22;7177;48.572;7.838;2024-01-15T15:18:40;1.30;99.90
14192;DHT22;7177;48.572;7.838;2024-01-15T15:21:08;1.30;99.90
14192;DHT22;7177;48.572;7.838;2024-01-15T15:23:33;1.20;99.90
14192;DHT22;7177;48.572;7.838;2024-01-15T15:25:59;1.30;99.90
14192;DHT22;7177;48.572;7.838;2024-01-15T15:28:24;1.30;99.90
14192;DHT22;7177;48.572;7.838;2024-01-15T15:30:50;1.20;99.90
14192;DHT22;7177;48.572;7.838;2024-01-15T15:33:16;1.20;99.90
14192;DHT22;7177;48.572;7.838;2024-01-15T15:35:43;1.30;99.90
14192;DHT22;7177;48.572;7.838;2024-01-15T15:38:09;1.30;99.90
14192;DHT22;7177;48.572;7.838;2024-01-15T15:40:34;1.30;99.90
14192;DHT22;7177;48.572;7.838;2024-01-15T15:43:00;1.30;99.90
14192;DHT22;7177;48.572;7.838;2024-01-15T15:45:25;1.30;99.90
14192;DHT22;7177;48.572;7.838;2024-01-15T15:47:50;1.30;99.90
14192;DHT22;7177;48.572;7.838;2024-01-15T15:50:16;1.30;99.90
14192;DHT22;7177;48.572;7.838;2024-01-15T15:52:42;1.30;99.90